This is the latest recevied weather packets stored in our database for station/object OSTR-WX. If no packets are shown the sender has not sent any weather packets the latest 10 day(s).
| Time | Temp. | Humidity | Pressure | Rain* | Wind** | Luminosity | Snow |
|---|---|---|---|---|---|---|---|
| 1777874083 | 11.11° C | 88% | 1017.4 hPa | - | - | - | - |
| 1777873132 | 8.33° C | 96% | 1017.6 hPa | - | - | - | - |
| 1777873126 | 8.33° C | 96% | 1017.6 hPa | - | - | - | - |
| 1777872175 | 6.11° C | 100% | 1018.1 hPa | - | - | - | - |
| 1777872169 | 6.11° C | 100% | 1018.1 hPa | - | - | - | - |
| 1777871213 | 5.56° C | 100% | 1018.2 hPa | - | - | - | - |
| 1777870264 | 5° C | 100% | 1018.3 hPa | - | - | - | - |
| 1777870255 | 5° C | 100% | 1018.3 hPa | - | - | - | - |
| 1777869298 | 4.44° C | 100% | 1018.3 hPa | - | - | - | - |
| 1777868341 | 3.89° C | 100% | 1018.2 hPa | - | - | - | - |
| 1777867384 | 3.33° C | 100% | 1018.1 hPa | - | - | - | - |
| 1777866427 | 3.33° C | 99% | 1018.1 hPa | - | - | - | - |
| 1777865470 | 3.33° C | 99% | 1018 hPa | - | - | - | - |
| 1777864513 | 3.33° C | 99% | 1018 hPa | - | - | - | - |
| 1777847287 | 7.78° C | 94% | 1017.9 hPa | - | - | - | - |
| 1777846330 | 7.78° C | 95% | 1017.9 hPa | - | - | - | - |
| 1777845374 | 8.33° C | 94% | 1017.9 hPa | - | - | - | - |
| 1777844423 | 8.89° C | 94% | 1017.9 hPa | - | - | - | - |
| 1777841553 | 10° C | 93% | 1017.6 hPa | - | - | - | - |
| 1777840595 | 10.56° C | 90% | 1017.5 hPa | - | - | - | - |
| 1777840589 | 10.56° C | 90% | 1017.5 hPa | - | - | - | - |
| 1777839637 | 10.56° C | 92% | 1017.4 hPa | - | - | - | - |
| 1777839636 | 10.56° C | 92% | 1017.4 hPa | - | - | - | - |
| 1777836761 | 11.67° C | 87% | 1017 hPa | - | - | - | - |
| 1777835804 | 12.78° C | 86% | 1016.9 hPa | - | - | - | - |
* Rain since midnight (hover to see other rain measurements)
** Current wind speed in m/s (hover to see current wind gust speed)